sensor_id;sensor_type;location;lat;lon;timestamp;pressure;altitude;pressure_sealevel;temperature;humidity
50550;BME280;36505;52.512;13.460;2022-12-07T00:03:54;100788.41;;;3.04;89.28
50550;BME280;36505;52.512;13.460;2022-12-07T00:06:25;100784.88;;;3.03;89.33
50550;BME280;36505;52.512;13.460;2022-12-07T00:08:51;100768.97;;;2.94;88.76
50550;BME280;36505;52.512;13.460;2022-12-07T00:11:21;100782.75;;;2.99;88.73
50550;BME280;36505;52.512;13.460;2022-12-07T00:13:51;100754.28;;;2.82;88.83
50550;BME280;36505;52.512;13.460;2022-12-07T00:16:19;100772.06;;;2.91;88.79
50550;BME280;36505;52.512;13.460;2022-12-07T00:18:45;100768.16;;;2.93;88.32
50550;BME280;36505;52.512;13.460;2022-12-07T00:21:18;100774.38;;;2.94;88.28
50550;BME280;36505;52.512;13.460;2022-12-07T00:23:46;100761.00;;;2.86;87.96
50550;BME280;36505;52.512;13.460;2022-12-07T00:26:33;100776.16;;;2.87;88.21
50550;BME280;36505;52.512;13.460;2022-12-07T00:28:59;100770.97;;;2.85;88.07
50550;BME280;36505;52.512;13.460;2022-12-07T00:31:31;100765.75;;;2.84;87.83
50550;BME280;36505;52.512;13.460;2022-12-07T00:33:58;100761.13;;;2.77;87.38
50550;BME280;36505;52.512;13.460;2022-12-07T00:36:24;100752.38;;;2.75;86.95
50550;BME280;36505;52.512;13.460;2022-12-07T00:38:50;100753.84;;;2.78;86.81
50550;BME280;36505;52.512;13.460;2022-12-07T00:41:20;100762.41;;;2.82;86.39
50550;BME280;36505;52.512;13.460;2022-12-07T00:43:47;100758.22;;;2.79;85.59
50550;BME280;36505;52.512;13.460;2022-12-07T00:46:14;100751.94;;;2.72;85.32
50550;BME280;36505;52.512;13.460;2022-12-07T00:48:40;100752.38;;;2.75;84.88
50550;BME280;36505;52.512;13.460;2022-12-07T00:51:08;100749.22;;;2.72;84.83
50550;BME280;36505;52.512;13.460;2022-12-07T00:53:36;100749.59;;;2.69;84.71
50550;BME280;36505;52.512;13.460;2022-12-07T00:56:09;100746.47;;;2.65;84.47
50550;BME280;36505;52.512;13.460;2022-12-07T00:58:36;100750.81;;;2.66;84.68
50550;BME280;36505;52.512;13.460;2022-12-07T01:01:03;100750.00;;;2.66;84.53
50550;BME280;36505;52.512;13.460;2022-12-07T01:03:29;100736.19;;;2.61;84.08
50550;BME280;36505;52.512;13.460;2022-12-07T01:05:55;100740.50;;;2.55;84.22
50550;BME280;36505;52.512;13.460;2022-12-07T01:08:22;100737.94;;;2.47;84.23
50550;BME280;36505;52.512;13.460;2022-12-07T01:10:49;100733.75;;;2.45;84.29
50550;BME280;36505;52.512;13.460;2022-12-07T01:13:15;100741.81;;;2.38;84.39
50550;BME280;36505;52.512;13.460;2022-12-07T01:15:42;100746.06;;;2.32;84.49
50550;BME280;36505;52.512;13.460;2022-12-07T01:18:08;100735.84;;;2.28;84.03
50550;BME280;36505;52.512;13.460;2022-12-07T01:20:33;100721.16;;;2.16;84.13
50550;BME280;36505;52.512;13.460;2022-12-07T01:22:59;100731.41;;;2.20;84.84
50550;BME280;36505;52.512;13.460;2022-12-07T01:25:24;100733.91;;;2.22;84.86
50550;BME280;36505;52.512;13.460;2022-12-07T01:27:50;100734.75;;;2.22;84.51
50550;BME280;36505;52.512;13.460;2022-12-07T01:30:15;100724.38;;;2.26;84.56
50550;BME280;36505;52.512;13.460;2022-12-07T01:32:40;100736.88;;;2.27;84.26
50550;BME280;36505;52.512;13.460;2022-12-07T01:35:06;100724.38;;;2.26;83.92
50550;BME280;36505;52.512;13.460;2022-12-07T01:37:36;100722.34;;;2.28;83.99
50550;BME280;36505;52.512;13.460;2022-12-07T01:40:03;100692.22;;;2.10;84.14
50550;BME280;36505;52.512;13.460;2022-12-07T01:42:29;100708.31;;;2.18;83.97
50550;BME280;36505;52.512;13.460;2022-12-07T01:48:20;100718.81;;;2.27;83.87
50550;BME280;36505;52.512;13.460;2022-12-07T01:50:48;100719.81;;;2.26;83.45
50550;BME280;36505;52.512;13.460;2022-12-07T01:53:16;100707.56;;;2.24;83.45
50550;BME280;36505;52.512;13.460;2022-12-07T01:55:44;100705.69;;;2.24;83.57
50550;BME280;36505;52.512;13.460;2022-12-07T01:58:11;100692.84;;;2.12;82.85
50550;BME280;36505;52.512;13.460;2022-12-07T02:00:38;100699.81;;;2.21;82.90
50550;BME280;36505;52.512;13.460;2022-12-07T02:03:08;100697.97;;;2.21;82.87
50550;BME280;36505;52.512;13.460;2022-12-07T02:05:37;100694.22;;;2.22;82.80
50550;BME280;36505;52.512;13.460;2022-12-07T02:08:03;100694.06;;;2.24;82.43
50550;BME280;36505;52.512;13.460;2022-12-07T02:10:30;100688.66;;;2.24;82.46
50550;BME280;36505;52.512;13.460;2022-12-07T02:13:21;100693.47;;;2.28;82.74
50550;BME280;36505;52.512;13.460;2022-12-07T02:27:00;100681.63;;;2.29;82.92
50550;BME280;36505;52.512;13.460;2022-12-07T02:30:19;100678.22;;;2.21;82.81
50550;BME280;36505;52.512;13.460;2022-12-07T02:32:23;100688.25;;;2.27;82.33
50550;BME280;36505;52.512;13.460;2022-12-07T02:34:52;100676.81;;;2.25;82.31
50550;BME280;36505;52.512;13.460;2022-12-07T02:37:39;100683.78;;;2.19;82.21
50550;BME280;36505;52.512;13.460;2022-12-07T02:40:08;100662.41;;;2.18;81.81
50550;BME280;36505;52.512;13.460;2022-12-07T02:42:41;100649.56;;;2.05;82.08
50550;BME280;36505;52.512;13.460;2022-12-07T02:45:10;100666.31;;;2.15;82.62
50550;BME280;36505;52.512;13.460;2022-12-07T02:47:37;100649.56;;;2.05;82.44
50550;BME280;36505;52.512;13.460;2022-12-07T02:50:07;100649.31;;;2.00;83.07
50550;BME280;36505;52.512;13.460;2022-12-07T02:52:33;100647.25;;;2.02;83.01
50550;BME280;36505;52.512;13.460;2022-12-07T02:54:58;100657.88;;;2.04;83.10
50550;BME280;36505;52.512;13.460;2022-12-07T03:00:08;100648.94;;;2.03;83.72
50550;BME280;36505;52.512;13.460;2022-12-07T03:07:58;100646.06;;;2.05;84.57
50550;BME280;36505;52.512;13.460;2022-12-07T03:10:33;100632.34;;;2.06;84.76
50550;BME280;36505;52.512;13.460;2022-12-07T03:18:29;100618.06;;;2.12;85.12
50550;BME280;36505;52.512;13.460;2022-12-07T03:20:58;100616.97;;;2.07;84.75
50550;BME280;36505;52.512;13.460;2022-12-07T03:23:27;100606.16;;;2.07;84.92
50550;BME280;36505;52.512;13.460;2022-12-07T03:25:57;100614.91;;;2.09;85.13
50550;BME280;36505;52.512;13.460;2022-12-07T03:28:27;100601.41;;;2.09;84.84
50550;BME280;36505;52.512;13.460;2022-12-07T03:33:29;100598.31;;;2.12;85.16
50550;BME280;36505;52.512;13.460;2022-12-07T03:38:42;100576.44;;;2.07;85.33
50550;BME280;36505;52.512;13.460;2022-12-07T03:41:16;100579.41;;;2.12;85.31
50550;BME280;36505;52.512;13.460;2022-12-07T03:43:44;100565.03;;;2.05;85.55
50550;BME280;36505;52.512;13.460;2022-12-07T03:51:43;100558.63;;;2.12;85.46
50550;BME280;36505;52.512;13.460;2022-12-07T03:54:13;100554.72;;;2.15;85.53
50550;BME280;36505;52.512;13.460;2022-12-07T03:56:42;100544.09;;;2.13;85.75
50550;BME280;36505;52.512;13.460;2022-12-07T03:59:09;100551.38;;;2.13;85.49
50550;BME280;36505;52.512;13.460;2022-12-07T04:01:36;100548.66;;;2.13;85.38
50550;BME280;36505;52.512;13.460;2022-12-07T04:04:01;100539.66;;;2.06;85.68
50550;BME280;36505;52.512;13.460;2022-12-07T04:06:27;100543.25;;;2.13;85.76
50550;BME280;36505;52.512;13.460;2022-12-07T04:08:52;100540.50;;;2.06;86.15
50550;BME280;36505;52.512;13.460;2022-12-07T04:11:17;100542.00;;;2.09;86.35
50550;BME280;36505;52.512;13.460;2022-12-07T04:13:43;100525.13;;;2.07;86.60
50550;BME280;36505;52.512;13.460;2022-12-07T04:16:27;100528.88;;;2.06;86.44
50550;BME280;36505;52.512;13.460;2022-12-07T04:18:52;100532.69;;;2.11;86.68
50550;BME280;36505;52.512;13.460;2022-12-07T04:21:17;100532.69;;;2.11;87.23
50550;BME280;36505;52.512;13.460;2022-12-07T04:23:43;100531.00;;;2.10;87.23
50550;BME280;36505;52.512;13.460;2022-12-07T04:26:08;100521.41;;;2.08;87.30
50550;BME280;36505;52.512;13.460;2022-12-07T04:28:33;100525.78;;;2.09;87.54
50550;BME280;36505;52.512;13.460;2022-12-07T04:30:59;100522.44;;;2.07;87.64
50550;BME280;36505;52.512;13.460;2022-12-07T04:33:24;100519.53;;;2.08;87.49
50550;BME280;36505;52.512;13.460;2022-12-07T04:35:49;100506.38;;;1.98;87.73
50550;BME280;36505;52.512;13.460;2022-12-07T04:38:15;100506.41;;;2.05;87.93
50550;BME280;36505;52.512;13.460;2022-12-07T04:40:40;100509.41;;;2.10;88.01
50550;BME280;36505;52.512;13.460;2022-12-07T04:43:05;100498.78;;;2.09;88.26
50550;BME280;36505;52.512;13.460;2022-12-07T04:45:31;100509.19;;;2.12;88.52
50550;BME280;36505;52.512;13.460;2022-12-07T04:47:56;100504.63;;;2.12;88.47
50550;BME280;36505;52.512;13.460;2022-12-07T04:50:22;100495.25;;;2.08;88.62
50550;BME280;36505;52.512;13.460;2022-12-07T04:52:47;100498.59;;;2.10;88.91
50550;BME280;36505;52.512;13.460;2022-12-07T04:55:12;100498.59;;;2.10;89.29
50550;BME280;36505;52.512;13.460;2022-12-07T04:57:38;100483.16;;;2.04;89.17
50550;BME280;36505;52.512;13.460;2022-12-07T05:00:03;100489.19;;;2.06;89.34
50550;BME280;36505;52.512;13.460;2022-12-07T05:02:29;100495.25;;;2.08;89.98
50550;BME280;36505;52.512;13.460;2022-12-07T05:04:54;100489.47;;;2.11;90.11
50550;BME280;36505;52.512;13.460;2022-12-07T05:07:20;100480.31;;;2.12;89.87
50550;BME280;36505;52.512;13.460;2022-12-07T05:09:45;100489.50;;;2.18;90.04
50550;BME280;36505;52.512;13.460;2022-12-07T05:12:10;100490.53;;;2.17;90.05
50550;BME280;36505;52.512;13.460;2022-12-07T05:14:36;100475.34;;;2.16;90.00
50550;BME280;36505;52.512;13.460;2022-12-07T05:17:01;100473.50;;;2.16;90.07
50550;BME280;36505;52.512;13.460;2022-12-07T05:19:26;100476.63;;;2.20;90.09
50550;BME280;36505;52.512;13.460;2022-12-07T05:21:53;100477.69;;;2.25;90.01
50550;BME280;36505;52.512;13.460;2022-12-07T05:24:18;100473.53;;;2.23;90.56
50550;BME280;36505;52.512;13.460;2022-12-07T05:26:44;100471.88;;;2.22;90.41
50550;BME280;36505;52.512;13.460;2022-12-07T05:29:12;100469.16;;;2.22;90.60
50550;BME280;36505;52.512;13.460;2022-12-07T05:31:38;100455.00;;;2.20;90.77
50550;BME280;36505;52.512;13.460;2022-12-07T05:34:03;100458.38;;;2.22;90.77
50550;BME280;36505;52.512;13.460;2022-12-07T05:36:28;100466.31;;;2.30;90.82
50550;BME280;36505;52.512;13.460;2022-12-07T05:38:56;100453.84;;;2.29;90.78
50550;BME280;36505;52.512;13.460;2022-12-07T05:41:21;100459.28;;;2.35;91.04
50550;BME280;36505;52.512;13.460;2022-12-07T05:44:05;100442.56;;;2.25;90.73
50550;BME280;36505;52.512;13.460;2022-12-07T05:46:31;100451.00;;;2.37;91.28
50550;BME280;36505;52.512;13.460;2022-12-07T05:48:56;100440.56;;;2.34;90.88
50550;BME280;36505;52.512;13.460;2022-12-07T05:51:22;100457.28;;;2.44;91.01
50550;BME280;36505;52.512;13.460;2022-12-07T05:53:47;100456.84;;;2.47;91.40
50550;BME280;36505;52.512;13.460;2022-12-07T05:56:12;100449.38;;;2.49;91.46
50550;BME280;36505;52.512;13.460;2022-12-07T05:58:38;100451.44;;;2.47;91.76
50550;BME280;36505;52.512;13.460;2022-12-07T06:01:22;100426.03;;;2.35;91.66
50550;BME280;36505;52.512;13.460;2022-12-07T06:03:47;100442.75;;;2.52;91.73
50550;BME280;36505;52.512;13.460;2022-12-07T06:06:13;100439.00;;;2.53;91.86
50550;BME280;36505;52.512;13.460;2022-12-07T06:08:38;100418.41;;;2.45;91.85
50550;BME280;36505;52.512;13.460;2022-12-07T06:11:04;100407.00;;;2.56;91.95
50550;BME280;36505;52.512;13.460;2022-12-07T06:13:47;100418.28;;;2.66;92.03
50550;BME280;36505;52.512;13.460;2022-12-07T06:16:13;100405.22;;;2.70;92.50
50550;BME280;36505;52.512;13.460;2022-12-07T06:18:38;100410.25;;;2.80;93.02
50550;BME280;36505;52.512;13.460;2022-12-07T06:21:03;100398.34;;;2.74;92.73
50550;BME280;36505;52.512;13.460;2022-12-07T06:23:29;100407.56;;;2.86;92.67
50550;BME280;36505;52.512;13.460;2022-12-07T06:25:54;100401.31;;;2.86;92.42
50550;BME280;36505;52.512;13.460;2022-12-07T06:28:20;100405.69;;;2.87;92.24
50550;BME280;36505;52.512;13.460;2022-12-07T06:30:45;100400.91;;;2.89;92.43
50550;BME280;36505;52.512;13.460;2022-12-07T06:33:10;100402.78;;;2.88;92.56
50550;BME280;36505;52.512;13.460;2022-12-07T06:35:36;100398.19;;;2.82;92.29
50550;BME280;36505;52.512;13.460;2022-12-07T06:38:04;100404.25;;;2.91;92.35
50550;BME280;36505;52.512;13.460;2022-12-07T06:40:29;100405.69;;;2.87;92.17
50550;BME280;36505;52.512;13.460;2022-12-07T06:42:54;100405.47;;;2.88;92.02
50550;BME280;36505;52.512;13.460;2022-12-07T06:45:20;100415.06;;;2.91;91.82
50550;BME280;36505;52.512;13.460;2022-12-07T06:47:45;100411.34;;;2.92;92.38
50550;BME280;36505;52.512;13.460;2022-12-07T06:50:11;100395.09;;;2.85;91.98
50550;BME280;36505;52.512;13.460;2022-12-07T06:52:37;100408.22;;;2.95;91.89
50550;BME280;36505;52.512;13.460;2022-12-07T06:55:02;100384.03;;;2.80;92.03
50550;BME280;36505;52.512;13.460;2022-12-07T06:57:28;100402.56;;;2.90;92.25
50550;BME280;36505;52.512;13.460;2022-12-07T06:59:53;100403.22;;;2.92;92.51
50550;BME280;36505;52.512;13.460;2022-12-07T07:02:18;100394.84;;;2.87;92.69
50550;BME280;36505;52.512;13.460;2022-12-07T07:04:44;100378.38;;;2.75;92.50
50550;BME280;36505;52.512;13.460;2022-12-07T07:07:09;100390.28;;;2.87;92.84
50550;BME280;36505;52.512;13.460;2022-12-07T07:09:35;100393.63;;;2.89;92.98
50550;BME280;36505;52.512;13.460;2022-12-07T07:12:00;100401.34;;;2.92;93.02
50550;BME280;36505;52.512;13.460;2022-12-07T07:14:26;100364.28;;;2.80;93.48
50550;BME280;36505;52.512;13.460;2022-12-07T07:16:51;100400.13;;;3.08;93.47
50550;BME280;36505;52.512;13.460;2022-12-07T07:19:16;100399.72;;;3.11;93.50
50550;BME280;36505;52.512;13.460;2022-12-07T07:21:42;100401.81;;;3.15;93.33
50550;BME280;36505;52.512;13.460;2022-12-07T07:24:07;100397.69;;;3.20;93.78
50550;BME280;36505;52.512;13.460;2022-12-07T07:26:33;100399.75;;;3.24;93.78
50550;BME280;36505;52.512;13.460;2022-12-07T07:29:00;100400.41;;;3.26;93.70
50550;BME280;36505;52.512;13.460;2022-12-07T07:31:26;100406.84;;;3.25;93.40
50550;BME280;36505;52.512;13.460;2022-12-07T07:33:51;100398.94;;;3.30;93.43
50550;BME280;36505;52.512;13.460;2022-12-07T07:36:17;100387.91;;;3.25;93.27
50550;BME280;36505;52.512;13.460;2022-12-07T07:38:43;100363.53;;;3.18;93.12
50550;BME280;36505;52.512;13.460;2022-12-07T07:41:08;100391.66;;;3.37;93.04
50550;BME280;36505;52.512;13.460;2022-12-07T07:43:33;100393.34;;;3.38;92.94
50550;BME280;36505;52.512;13.460;2022-12-07T07:45:59;100383.97;;;3.34;92.87
50550;BME280;36505;52.512;13.460;2022-12-07T07:48:24;100373.34;;;3.26;92.54
50550;BME280;36505;52.512;13.460;2022-12-07T07:51:06;100392.09;;;3.41;92.47
50550;BME280;36505;52.512;13.460;2022-12-07T07:53:32;100393.53;;;3.43;92.39
50550;BME280;36505;52.512;13.460;2022-12-07T07:55:57;100399.38;;;3.40;92.05
50550;BME280;36505;52.512;13.460;2022-12-07T07:58:23;100397.28;;;3.42;92.08
50550;BME280;36505;52.512;13.460;2022-12-07T08:00:49;100390.19;;;3.41;91.59
50550;BME280;36505;52.512;13.460;2022-12-07T08:03:15;100400.22;;;3.47;91.63
50550;BME280;36505;52.512;13.460;2022-12-07T08:05:40;100408.34;;;3.47;91.06
50550;BME280;36505;52.512;13.460;2022-12-07T08:08:06;100393.53;;;3.37;90.01
50550;BME280;36505;52.512;13.460;2022-12-07T08:10:31;100403.78;;;3.48;90.09
50550;BME280;36505;52.512;13.460;2022-12-07T08:12:59;100388.97;;;3.37;90.29
50550;BME280;36505;52.512;13.460;2022-12-07T08:15:39;100407.06;;;3.43;90.24
50550;BME280;36505;52.512;13.460;2022-12-07T08:18:05;100411.84;;;3.41;89.24
50550;BME280;36505;52.512;13.460;2022-12-07T08:20:32;100397.50;;;3.34;89.42
50550;BME280;36505;52.512;13.460;2022-12-07T08:22:58;100410.81;;;3.42;89.59
50550;BME280;36505;52.512;13.460;2022-12-07T08:25:23;100412.69;;;3.48;89.41
50550;BME280;36505;52.512;13.460;2022-12-07T08:27:50;100393.34;;;3.45;89.21
50550;BME280;36505;52.512;13.460;2022-12-07T08:30:16;100399.16;;;3.55;89.25
50550;BME280;36505;52.512;13.460;2022-12-07T08:32:41;100401.47;;;3.51;88.75
50550;BME280;36505;52.512;13.460;2022-12-07T08:35:09;100418.56;;;3.65;88.88
50550;BME280;36505;52.512;13.460;2022-12-07T08:37:34;100394.19;;;3.58;88.64
50550;BME280;36505;52.512;13.460;2022-12-07T08:39:59;100413.34;;;3.70;88.06
50550;BME280;36505;52.512;13.460;2022-12-07T08:42:25;100413.97;;;3.72;88.03
50550;BME280;36505;52.512;13.460;2022-12-07T08:44:55;100408.56;;;3.79;87.82
50550;BME280;36505;52.512;13.460;2022-12-07T08:47:20;100390.25;;;3.68;87.28
50550;BME280;36505;52.512;13.460;2022-12-07T08:49:48;100410.63;;;3.83;86.90
50550;BME280;36505;52.512;13.460;2022-12-07T08:52:15;100418.16;;;3.94;85.62
50550;BME280;36505;52.512;13.460;2022-12-07T08:54:41;100406.88;;;3.78;85.11
50550;BME280;36505;52.512;13.460;2022-12-07T08:57:08;100406.50;;;3.81;83.76
50550;BME280;36505;52.512;13.460;2022-12-07T08:59:35;100429.38;;;3.91;82.91
50550;BME280;36505;52.512;13.460;2022-12-07T09:02:01;100425.84;;;3.91;82.98
50550;BME280;36505;52.512;13.460;2022-12-07T09:04:27;100427.72;;;3.90;83.15
50550;BME280;36505;52.512;13.460;2022-12-07T09:06:54;100426.06;;;3.89;82.36
50550;BME280;36505;52.512;13.460;2022-12-07T09:09:20;100433.78;;;3.99;81.87
50550;BME280;36505;52.512;13.460;2022-12-07T09:11:45;100438.53;;;4.04;81.58
50550;BME280;36505;52.512;13.460;2022-12-07T09:14:12;100406.47;;;3.87;80.21
50550;BME280;36505;52.512;13.460;2022-12-07T09:16:38;100435.63;;;4.12;79.62
50550;BME280;36505;52.512;13.460;2022-12-07T09:19:03;100430.66;;;4.09;79.29
50550;BME280;36505;52.512;13.460;2022-12-07T09:21:28;100450.44;;;4.29;78.70
50550;BME280;36505;52.512;13.460;2022-12-07T09:23:54;100439.38;;;4.24;77.71
50550;BME280;36505;52.512;13.460;2022-12-07T09:26:19;100439.38;;;4.17;77.03
50550;BME280;36505;52.512;13.460;2022-12-07T09:28:45;100452.72;;;4.25;76.69
50550;BME280;36505;52.512;13.460;2022-12-07T09:31:10;100465.03;;;4.15;75.92
50550;BME280;36505;52.512;13.460;2022-12-07T09:33:35;100456.69;;;4.10;76.66
50550;BME280;36505;52.512;13.460;2022-12-07T09:36:01;100451.91;;;3.98;76.80
50550;BME280;36505;52.512;13.460;2022-12-07T09:38:28;100451.50;;;4.02;76.63
50550;BME280;36505;52.512;13.460;2022-12-07T09:40:55;100471.06;;;4.04;75.92
50550;BME280;36505;52.512;13.460;2022-12-07T09:43:22;100466.91;;;4.01;75.36
50550;BME280;36505;52.512;13.460;2022-12-07T09:45:51;100456.47;;;3.91;76.15
50550;BME280;36505;52.512;13.460;2022-12-07T09:48:21;100483.38;;;4.00;75.80
50550;BME280;36505;52.512;13.460;2022-12-07T09:50:48;100464.41;;;4.00;75.83
50550;BME280;36505;52.512;13.460;2022-12-07T09:53:20;100472.09;;;4.03;75.63
50550;BME280;36505;52.512;13.460;2022-12-07T09:55:48;100477.94;;;4.00;74.96
50550;BME280;36505;52.512;13.460;2022-12-07T09:58:25;100484.59;;;3.97;74.89
50550;BME280;36505;52.512;13.460;2022-12-07T10:00:57;100455.63;;;3.78;75.14
50550;BME280;36505;52.512;13.460;2022-12-07T10:03:23;100471.06;;;3.84;75.36
50550;BME280;36505;52.512;13.460;2022-12-07T10:05:51;100481.88;;;3.84;75.63
50550;BME280;36505;52.512;13.460;2022-12-07T10:08:17;100476.28;;;3.79;74.90
50550;BME280;36505;52.512;13.460;2022-12-07T10:10:44;100472.94;;;3.77;75.01
50550;BME280;36505;52.512;13.460;2022-12-07T10:13:15;100475.81;;;3.69;74.78
50550;BME280;36505;52.512;13.460;2022-12-07T10:15:56;100455.00;;;3.63;75.02
50550;BME280;36505;52.512;13.460;2022-12-07T10:18:36;100482.31;;;3.81;75.46
50550;BME280;36505;52.512;13.460;2022-12-07T10:23:58;100461.25;;;3.76;75.01
50550;BME280;36505;52.512;13.460;2022-12-07T10:26:28;100462.72;;;3.79;74.54
50550;BME280;36505;52.512;13.460;2022-12-07T10:28:55;100476.47;;;3.90;75.03
50550;BME280;36505;52.512;13.460;2022-12-07T10:31:23;100483.16;;;3.88;74.90
50550;BME280;36505;52.512;13.460;2022-12-07T10:34:00;100466.47;;;3.91;75.01
50550;BME280;36505;52.512;13.460;2022-12-07T10:36:35;100449.59;;;3.82;74.28
50550;BME280;36505;52.512;13.460;2022-12-07T10:39:14;100470.66;;;4.00;74.20
50550;BME280;36505;52.512;13.460;2022-12-07T10:44:24;100468.78;;;4.01;74.31
50550;BME280;36505;52.512;13.460;2022-12-07T10:52:42;100472.72;;;4.18;74.42
50550;BME280;36505;52.512;13.460;2022-12-07T11:04:30;100474.19;;;4.07;74.57
50550;BME280;36505;52.512;13.460;2022-12-07T11:15:48;100449.38;;;4.10;74.98
50550;BME280;36505;52.512;13.460;2022-12-07T11:18:27;100476.28;;;4.18;75.34
50550;BME280;36505;52.512;13.460;2022-12-07T11:21:13;100467.09;;;4.19;75.42
50550;BME280;36505;52.512;13.460;2022-12-07T11:36:47;100458.97;;;4.19;76.93
50550;BME280;36505;52.512;13.460;2022-12-07T11:41:45;100452.50;;;4.20;75.99
50550;BME280;36505;52.512;13.460;2022-12-07T11:46:58;100447.94;;;4.14;76.08
50550;BME280;36505;52.512;13.460;2022-12-07T11:55:21;100443.16;;;4.23;76.12
50550;BME280;36505;52.512;13.460;2022-12-07T11:57:56;100447.28;;;4.25;76.44
50550;BME280;36505;52.512;13.460;2022-12-07T12:00:27;100438.94;;;4.27;75.83
50550;BME280;36505;52.512;13.460;2022-12-07T12:02:59;100437.28;;;4.26;75.84
50550;BME280;36505;52.512;13.460;2022-12-07T12:05:27;100434.56;;;4.26;75.94
50550;BME280;36505;52.512;13.460;2022-12-07T12:08:03;100438.75;;;4.28;75.92
50550;BME280;36505;52.512;13.460;2022-12-07T12:21:57;100421.00;;;4.39;75.39
50550;BME280;36505;52.512;13.460;2022-12-07T12:24:27;100412.88;;;4.32;75.57
50550;BME280;36505;52.512;13.460;2022-12-07T12:27:06;100415.16;;;4.42;75.98
50550;BME280;36505;52.512;13.460;2022-12-07T12:29:37;100407.63;;;4.44;76.24
50550;BME280;36505;52.512;13.460;2022-12-07T12:32:16;100405.75;;;4.45;75.58
50550;BME280;36505;52.512;13.460;2022-12-07T12:40:38;100401.59;;;4.42;75.98
50550;BME280;36505;52.512;13.460;2022-12-07T12:46:38;100420.13;;;4.52;76.51
50550;BME280;36505;52.512;13.460;2022-12-07T12:51:55;100403.03;;;4.45;76.02
50550;BME280;36505;52.512;13.460;2022-12-07T12:54:22;100410.75;;;4.48;75.84
50550;BME280;36505;52.512;13.460;2022-12-07T12:56:59;100409.94;;;4.47;76.54
50550;BME280;36505;52.512;13.460;2022-12-07T12:59:31;100411.81;;;4.47;76.18
50550;BME280;36505;52.512;13.460;2022-12-07T13:05:02;100415.34;;;4.47;75.94
50550;BME280;36505;52.512;13.460;2022-12-07T13:18:34;100409.69;;;4.62;76.04
50550;BME280;36505;52.512;13.460;2022-12-07T13:23:54;100408.00;;;4.61;76.61
50550;BME280;36505;52.512;13.460;2022-12-07T13:28:50;100404.47;;;4.60;76.56
50550;BME280;36505;52.512;13.460;2022-12-07T13:31:18;100401.75;;;4.60;76.15
50550;BME280;36505;52.512;13.460;2022-12-07T13:33:46;100407.16;;;4.60;76.43
50550;BME280;36505;52.512;13.460;2022-12-07T13:38:50;100390.50;;;4.57;76.30
50550;BME280;36505;52.512;13.460;2022-12-07T13:41:17;100397.78;;;4.63;76.62
50550;BME280;36505;52.512;13.460;2022-12-07T13:46:14;100403.63;;;4.60;76.88
50550;BME280;36505;52.512;13.460;2022-12-07T13:48:49;100383.41;;;4.56;76.37
50550;BME280;36505;52.512;13.460;2022-12-07T13:51:25;100401.78;;;4.54;76.60
50550;BME280;36505;52.512;13.460;2022-12-07T13:54:08;100400.09;;;4.53;76.62
50550;BME280;36505;52.512;13.460;2022-12-07T13:56:35;100393.84;;;4.52;76.77
50550;BME280;36505;52.512;13.460;2022-12-07T13:59:01;100392.81;;;4.47;76.74
50550;BME280;36505;52.512;13.460;2022-12-07T14:01:30;100402.19;;;4.51;77.14
50550;BME280;36505;52.512;13.460;2022-12-07T14:03:56;100400.53;;;4.50;76.72
50550;BME280;36505;52.512;13.460;2022-12-07T14:06:48;100397.22;;;4.48;76.38
50550;BME280;36505;52.512;13.460;2022-12-07T14:09:25;100409.94;;;4.47;76.45
50550;BME280;36505;52.512;13.460;2022-12-07T14:11:56;100410.75;;;4.48;76.29
50550;BME280;36505;52.512;13.460;2022-12-07T14:14:30;100388.88;;;4.43;76.47
50550;BME280;36505;52.512;13.460;2022-12-07T14:20:00;100387.84;;;4.30;76.83
50550;BME280;36505;52.512;13.460;2022-12-07T14:22:33;100403.47;;;4.42;77.20
50550;BME280;36505;52.512;13.460;2022-12-07T14:25:13;100400.34;;;4.38;76.78
50550;BME280;36505;52.512;13.460;2022-12-07T14:27:47;100406.00;;;4.36;76.49
50550;BME280;36505;52.512;13.460;2022-12-07T14:30:17;100405.16;;;4.36;76.96
50550;BME280;36505;52.512;13.460;2022-12-07T14:35:30;100390.81;;;4.22;76.85
50550;BME280;36505;52.512;13.460;2022-12-07T14:37:56;100392.25;;;4.25;76.96
50550;BME280;36505;52.512;13.460;2022-12-07T14:40:27;100385.41;;;4.22;76.79
50550;BME280;36505;52.512;13.460;2022-12-07T14:43:09;100384.75;;;4.20;76.90
50550;BME280;36505;52.512;13.460;2022-12-07T14:45:35;100381.88;;;4.15;77.63
50550;BME280;36505;52.512;13.460;2022-12-07T14:48:01;100376.47;;;4.09;77.99
50550;BME280;36505;52.512;13.460;2022-12-07T14:50:26;100380.22;;;4.08;77.96
50550;BME280;36505;52.512;13.460;2022-12-07T14:52:56;100382.28;;;3.99;78.26
50550;BME280;36505;52.512;13.460;2022-12-07T14:55:27;100384.59;;;3.95;78.17
50550;BME280;36505;52.512;13.460;2022-12-07T14:57:53;100380.44;;;3.93;78.47
50550;BME280;36505;52.512;13.460;2022-12-07T15:00:20;100381.28;;;3.87;78.46
50550;BME280;36505;52.512;13.460;2022-12-07T15:02:47;100376.47;;;3.76;79.54
50550;BME280;36505;52.512;13.460;2022-12-07T15:05:13;100391.28;;;3.73;79.52
50550;BME280;36505;52.512;13.460;2022-12-07T15:07:39;100382.53;;;3.65;79.66
50550;BME280;36505;52.512;13.460;2022-12-07T15:10:08;100382.31;;;3.60;80.08
50550;BME280;36505;52.512;13.460;2022-12-07T15:12:38;100361.91;;;3.44;80.12
50550;BME280;36505;52.512;13.460;2022-12-07T15:15:03;100383.16;;;3.53;80.61
50550;BME280;36505;52.512;13.460;2022-12-07T15:17:29;100373.75;;;3.49;80.88
50550;BME280;36505;52.512;13.460;2022-12-07T15:19:54;100381.88;;;3.49;80.61
50550;BME280;36505;52.512;13.460;2022-12-07T15:22:19;100378.13;;;3.44;80.70
50550;BME280;36505;52.512;13.460;2022-12-07T15:24:45;100376.88;;;3.33;80.67